sensor_id;sensor_type;location;lat;lon;timestamp;pressure;altitude;pressure_sealevel;temperature;humidity
75998;BME280;64685;48.762;44.822;2024-02-21T00:00:49;102960.34;;;-4.86;100.00
75998;BME280;64685;48.762;44.822;2024-02-21T00:05:52;102936.16;;;-4.97;100.00
75998;BME280;64685;48.762;44.822;2024-02-21T00:10:56;102925.06;;;-5.12;100.00
75998;BME280;64685;48.762;44.822;2024-02-21T00:16:01;102940.47;;;-5.28;100.00
75998;BME280;64685;48.762;44.822;2024-02-21T00:21:05;102926.16;;;-5.46;100.00
75998;BME280;64685;48.762;44.822;2024-02-21T00:26:08;102912.03;;;-5.42;100.00
75998;BME280;64685;48.762;44.822;2024-02-21T00:31:12;102928.56;;;-5.27;100.00
75998;BME280;64685;48.762;44.822;2024-02-21T00:36:15;102929.31;;;-5.59;100.00
75998;BME280;64685;48.762;44.822;2024-02-21T00:41:19;102912.97;;;-5.67;100.00
75998;BME280;64685;48.762;44.822;2024-02-21T00:46:23;102894.63;;;-6.06;100.00
75998;BME280;64685;48.762;44.822;2024-02-21T00:51:26;102918.03;;;-6.13;100.00
75998;BME280;64685;48.762;44.822;2024-02-21T00:56:30;102908.19;;;-6.14;100.00
75998;BME280;64685;48.762;44.822;2024-02-21T01:01:34;102908.56;;;-6.09;100.00
75998;BME280;64685;48.762;44.822;2024-02-21T01:06:37;102935.25;;;-6.05;100.00
75998;BME280;64685;48.762;44.822;2024-02-21T01:11:41;102944.97;;;-6.28;100.00
75998;BME280;64685;48.762;44.822;2024-02-21T01:16:45;102921.94;;;-6.16;100.00
75998;BME280;64685;48.762;44.822;2024-02-21T01:21:49;102933.19;;;-6.11;100.00
75998;BME280;64685;48.762;44.822;2024-02-21T01:26:52;102942.66;;;-6.15;100.00
75998;BME280;64685;48.762;44.822;2024-02-21T01:31:56;102925.06;;;-6.03;100.00
75998;BME280;64685;48.762;44.822;2024-02-21T01:37:00;102924.31;;;-5.87;100.00
75998;BME280;64685;48.762;44.822;2024-02-21T01:42:07;102937.16;;;-5.97;100.00
75998;BME280;64685;48.762;44.822;2024-02-21T01:47:13;102947.78;;;-6.12;100.00
75998;BME280;64685;48.762;44.822;2024-02-21T01:52:17;102941.72;;;-6.31;100.00
75998;BME280;64685;48.762;44.822;2024-02-21T01:57:22;102928.63;;;-6.53;100.00
75998;BME280;64685;48.762;44.822;2024-02-21T02:02:26;102951.94;;;-6.68;100.00
75998;BME280;64685;48.762;44.822;2024-02-21T02:07:29;102948.91;;;-6.65;100.00
75998;BME280;64685;48.762;44.822;2024-02-21T02:12:33;102924.94;;;-6.87;100.00
75998;BME280;64685;48.762;44.822;2024-02-21T02:17:37;102950.94;;;-6.85;100.00
75998;BME280;64685;48.762;44.822;2024-02-21T02:22:42;102956.19;;;-6.66;100.00
75998;BME280;64685;48.762;44.822;2024-02-21T02:27:47;102959.53;;;-6.54;100.00
75998;BME280;64685;48.762;44.822;2024-02-21T02:32:50;102955.59;;;-6.34;100.00
75998;BME280;64685;48.762;44.822;2024-02-21T02:37:54;102951.94;;;-6.25;100.00
75998;BME280;64685;48.762;44.822;2024-02-21T02:42:58;102957.75;;;-6.20;100.00
75998;BME280;64685;48.762;44.822;2024-02-21T02:48:02;102942.66;;;-6.83;100.00
75998;BME280;64685;48.762;44.822;2024-02-21T02:53:06;102964.88;;;-6.62;100.00
75998;BME280;64685;48.762;44.822;2024-02-21T02:58:09;102970.09;;;-6.86;100.00
75998;BME280;64685;48.762;44.822;2024-02-21T03:03:12;102970.78;;;-6.84;100.00
75998;BME280;64685;48.762;44.822;2024-02-21T03:08:16;102977.44;;;-6.61;100.00
75998;BME280;64685;48.762;44.822;2024-02-21T03:13:19;102965.03;;;-6.46;100.00
75998;BME280;64685;48.762;44.822;2024-02-21T03:18:23;102975.34;;;-6.50;100.00
75998;BME280;64685;48.762;44.822;2024-02-21T03:23:26;102979.16;;;-6.17;100.00
75998;BME280;64685;48.762;44.822;2024-02-21T03:28:30;102969.94;;;-6.24;100.00
75998;BME280;64685;48.762;44.822;2024-02-21T03:33:36;102961.19;;;-6.36;100.00
75998;BME280;64685;48.762;44.822;2024-02-21T03:38:39;102979.75;;;-6.31;100.00
75998;BME280;64685;48.762;44.822;2024-02-21T03:43:43;102996.66;;;-5.94;100.00
75998;BME280;64685;48.762;44.822;2024-02-21T03:48:46;102991.75;;;-5.91;100.00
75998;BME280;64685;48.762;44.822;2024-02-21T03:53:50;102989.53;;;-5.95;100.00
75998;BME280;64685;48.762;44.822;2024-02-21T03:58:53;103006.59;;;-5.85;100.00
75998;BME280;64685;48.762;44.822;2024-02-21T04:03:57;102998.50;;;-6.46;100.00
75998;BME280;64685;48.762;44.822;2024-02-21T04:09:01;102987.06;;;-6.84;100.00
75998;BME280;64685;48.762;44.822;2024-02-21T04:14:04;103005.31;;;-6.77;100.00
75998;BME280;64685;48.762;44.822;2024-02-21T04:19:08;103012.84;;;-6.88;100.00
75998;BME280;64685;48.762;44.822;2024-02-21T04:24:12;103016.56;;;-6.89;100.00
75998;BME280;64685;48.762;44.822;2024-02-21T04:29:16;103032.91;;;-6.99;100.00
75998;BME280;64685;48.762;44.822;2024-02-21T04:34:19;103037.59;;;-7.18;100.00
75998;BME280;64685;48.762;44.822;2024-02-21T04:39:23;103044.84;;;-7.09;100.00
75998;BME280;64685;48.762;44.822;2024-02-21T04:44:27;103047.78;;;-7.20;100.00
75998;BME280;64685;48.762;44.822;2024-02-21T04:49:31;103044.69;;;-7.35;100.00
75998;BME280;64685;48.762;44.822;2024-02-21T04:54:34;103057.41;;;-7.08;100.00
75998;BME280;64685;48.762;44.822;2024-02-21T04:59:41;103044.28;;;-6.68;100.00
75998;BME280;64685;48.762;44.822;2024-02-21T05:04:45;103058.00;;;-6.17;100.00
75998;BME280;64685;48.762;44.822;2024-02-21T05:09:49;103047.47;;;-5.69;100.00
75998;BME280;64685;48.762;44.822;2024-02-21T05:14:52;103054.16;;;-5.30;100.00
75998;BME280;64685;48.762;44.822;2024-02-21T05:19:56;103047.41;;;-4.61;100.00
75998;BME280;64685;48.762;44.822;2024-02-21T05:25:00;103053.41;;;-4.41;100.00
75998;BME280;64685;48.762;44.822;2024-02-21T05:30:05;103040.41;;;-3.13;100.00
75998;BME280;64685;48.762;44.822;2024-02-21T05:35:09;103047.16;;;-2.62;100.00
75998;BME280;64685;48.762;44.822;2024-02-21T05:40:13;103033.94;;;-2.28;100.00
75998;BME280;64685;48.762;44.822;2024-02-21T05:45:18;103053.50;;;-2.17;100.00
75998;BME280;64685;48.762;44.822;2024-02-21T05:50:21;103058.38;;;-2.49;100.00
75998;BME280;64685;48.762;44.822;2024-02-21T05:55:26;103051.56;;;-2.08;97.83
75998;BME280;64685;48.762;44.822;2024-02-21T06:00:30;103046.25;;;-2.77;93.24
75998;BME280;64685;48.762;44.822;2024-02-21T06:05:39;103058.78;;;-2.91;92.29
75998;BME280;64685;48.762;44.822;2024-02-21T06:10:43;103067.84;;;-2.15;88.43
75998;BME280;64685;48.762;44.822;2024-02-21T06:15:47;103068.56;;;-1.76;86.77
75998;BME280;64685;48.762;44.822;2024-02-21T06:20:50;103060.47;;;-1.69;83.84
75998;BME280;64685;48.762;44.822;2024-02-21T06:25:54;103063.06;;;-1.24;84.19
75998;BME280;64685;48.762;44.822;2024-02-21T06:38:43;103063.91;;;-0.80;76.92
75998;BME280;64685;48.762;44.822;2024-02-21T06:43:46;103056.00;;;-1.85;78.75
75998;BME280;64685;48.762;44.822;2024-02-21T06:48:50;103057.22;;;-1.87;77.31
75998;BME280;64685;48.762;44.822;2024-02-21T06:53:54;103064.47;;;-0.49;74.07
75998;BME280;64685;48.762;44.822;2024-02-21T07:22:10;103066.94;;;-0.19;62.28
75998;BME280;64685;48.762;44.822;2024-02-21T07:27:16;103063.78;;;-0.37;62.83
75998;BME280;64685;48.762;44.822;2024-02-21T07:32:19;103051.06;;;-0.03;60.98
75998;BME280;64685;48.762;44.822;2024-02-21T07:37:23;103046.53;;;-0.66;64.13
75998;BME280;64685;48.762;44.822;2024-02-21T07:42:26;103051.03;;;-0.94;64.77
75998;BME280;64685;48.762;44.822;2024-02-21T07:47:29;103047.81;;;-0.83;64.50
75998;BME280;64685;48.762;44.822;2024-02-21T07:52:32;103036.66;;;0.16;62.36
75998;BME280;64685;48.762;44.822;2024-02-21T07:57:36;103045.91;;;0.64;61.44
75998;BME280;64685;48.762;44.822;2024-02-21T08:02:39;103038.34;;;0.72;60.40
75998;BME280;64685;48.762;44.822;2024-02-21T08:07:44;103033.50;;;1.75;57.19
75998;BME280;64685;48.762;44.822;2024-02-21T08:12:47;103017.53;;;3.51;50.93
75998;BME280;64685;48.762;44.822;2024-02-21T08:17:50;103038.06;;;1.48;52.91
75998;BME280;64685;48.762;44.822;2024-02-21T08:22:54;103021.69;;;2.13;52.35
75998;BME280;64685;48.762;44.822;2024-02-21T08:27:58;103014.88;;;2.09;50.62
75998;BME280;64685;48.762;44.822;2024-02-21T08:33:02;103027.69;;;3.06;47.77
75998;BME280;64685;48.762;44.822;2024-02-21T08:38:07;103022.31;;;2.09;49.21
75998;BME280;64685;48.762;44.822;2024-02-21T08:43:10;103015.16;;;4.16;46.14
75998;BME280;64685;48.762;44.822;2024-02-21T08:48:13;103016.44;;;4.87;43.18
75998;BME280;64685;48.762;44.822;2024-02-21T08:53:17;103021.66;;;5.61;43.55
75998;BME280;64685;48.762;44.822;2024-02-21T08:58:20;103025.91;;;7.03;40.99
75998;BME280;64685;48.762;44.822;2024-02-21T09:03:26;103025.41;;;7.29;38.48
75998;BME280;64685;48.762;44.822;2024-02-21T09:08:29;103021.84;;;6.48;39.63
75998;BME280;64685;48.762;44.822;2024-02-21T09:13:32;103020.91;;;6.13;38.85
75998;BME280;64685;48.762;44.822;2024-02-21T09:18:36;103009.59;;;7.18;38.35
75998;BME280;64685;48.762;44.822;2024-02-21T09:23:39;103006.19;;;5.71;39.24
75998;BME280;64685;48.762;44.822;2024-02-21T09:28:43;103003.13;;;6.55;38.35
75998;BME280;64685;48.762;44.822;2024-02-21T09:33:47;103008.06;;;6.99;37.82
75998;BME280;64685;48.762;44.822;2024-02-21T09:38:50;103004.34;;;6.82;36.89
75998;BME280;64685;48.762;44.822;2024-02-21T09:43:53;103004.16;;;7.34;36.93
75998;BME280;64685;48.762;44.822;2024-02-21T09:54:07;103008.22;;;7.99;36.31
75998;BME280;64685;48.762;44.822;2024-02-21T09:59:18;103009.81;;;7.67;35.64
75998;BME280;64685;48.762;44.822;2024-02-21T10:04:22;102997.16;;;7.20;36.54
75998;BME280;64685;48.762;44.822;2024-02-21T10:09:27;103002.66;;;6.81;36.62
75998;BME280;64685;48.762;44.822;2024-02-21T10:14:31;102995.13;;;8.61;35.55
75998;BME280;64685;48.762;44.822;2024-02-21T10:19:35;102984.00;;;8.28;35.48
75998;BME280;64685;48.762;44.822;2024-02-21T10:24:38;102991.97;;;7.52;36.13
75998;BME280;64685;48.762;44.822;2024-02-21T10:29:49;102981.53;;;5.81;37.02
75998;BME280;64685;48.762;44.822;2024-02-21T10:35:02;102970.44;;;5.34;39.15
75998;BME280;64685;48.762;44.822;2024-02-21T10:40:07;102981.50;;;4.44;39.04
75998;BME280;64685;48.762;44.822;2024-02-21T10:45:10;102969.66;;;4.61;40.13
75998;BME280;64685;48.762;44.822;2024-02-21T10:50:19;102961.50;;;5.20;38.86
75998;BME280;64685;48.762;44.822;2024-02-21T10:55:46;102971.91;;;5.54;37.55
75998;BME280;64685;48.762;44.822;2024-02-21T11:00:54;102977.59;;;3.47;40.50
75998;BME280;64685;48.762;44.822;2024-02-21T11:05:58;102986.13;;;2.95;42.04
75998;BME280;64685;48.762;44.822;2024-02-21T11:11:02;102968.88;;;3.12;43.27
75998;BME280;64685;48.762;44.822;2024-02-21T11:16:10;102969.41;;;3.27;42.83
75998;BME280;64685;48.762;44.822;2024-02-21T11:21:13;102964.44;;;3.05;43.68
75998;BME280;64685;48.762;44.822;2024-02-21T11:26:19;102959.00;;;3.67;43.24
75998;BME280;64685;48.762;44.822;2024-02-21T11:31:23;102962.56;;;2.92;45.07
75998;BME280;64685;48.762;44.822;2024-02-21T11:36:26;102947.72;;;3.31;43.51
75998;BME280;64685;48.762;44.822;2024-02-21T11:41:31;102956.56;;;2.51;45.54
75998;BME280;64685;48.762;44.822;2024-02-21T11:46:34;102933.91;;;1.97;46.04
75998;BME280;64685;48.762;44.822;2024-02-21T11:51:38;102958.91;;;1.63;47.37
75998;BME280;64685;48.762;44.822;2024-02-21T11:56:41;102951.91;;;1.74;48.50
75998;BME280;64685;48.762;44.822;2024-02-21T12:01:48;102943.31;;;0.63;51.18
75998;BME280;64685;48.762;44.822;2024-02-21T12:06:53;102953.13;;;0.11;54.53
75998;BME280;64685;48.762;44.822;2024-02-21T12:11:59;102973.50;;;-0.88;59.59
75998;BME280;64685;48.762;44.822;2024-02-21T12:17:03;102958.63;;;-1.29;61.19
75998;BME280;64685;48.762;44.822;2024-02-21T12:22:16;102967.34;;;-1.55;62.09
75998;BME280;64685;48.762;44.822;2024-02-21T12:27:19;102952.59;;;-2.34;68.04
75998;BME280;64685;48.762;44.822;2024-02-21T12:32:23;102945.44;;;-3.03;74.82
75998;BME280;64685;48.762;44.822;2024-02-21T12:37:26;102979.41;;;-3.44;79.73
75998;BME280;64685;48.762;44.822;2024-02-21T12:42:30;102968.28;;;-3.81;83.12
75998;BME280;64685;48.762;44.822;2024-02-21T12:47:33;102978.41;;;-4.13;86.80
75998;BME280;64685;48.762;44.822;2024-02-21T12:52:37;102966.31;;;-4.27;89.07
75998;BME280;64685;48.762;44.822;2024-02-21T12:57:40;102980.47;;;-4.23;91.18
75998;BME280;64685;48.762;44.822;2024-02-21T13:02:43;102980.47;;;-4.55;91.95
75998;BME280;64685;48.762;44.822;2024-02-21T13:07:46;102971.75;;;-4.83;96.28
75998;BME280;64685;48.762;44.822;2024-02-21T13:12:51;102976.00;;;-4.80;96.81
75998;BME280;64685;48.762;44.822;2024-02-21T13:17:58;102983.28;;;-5.05;100.00
75998;BME280;64685;48.762;44.822;2024-02-21T13:23:02;102970.13;;;-5.25;100.00
75998;BME280;64685;48.762;44.822;2024-02-21T13:28:06;102972.44;;;-5.38;100.00
75998;BME280;64685;48.762;44.822;2024-02-21T13:33:10;102978.91;;;-5.39;100.00
75998;BME280;64685;48.762;44.822;2024-02-21T13:38:13;102974.47;;;-5.48;100.00
75998;BME280;64685;48.762;44.822;2024-02-21T13:43:17;102983.59;;;-5.57;100.00
75998;BME280;64685;48.762;44.822;2024-02-21T13:48:21;102977.53;;;-5.85;100.00
75998;BME280;64685;48.762;44.822;2024-02-21T13:53:25;102991.84;;;-6.00;100.00
75998;BME280;64685;48.762;44.822;2024-02-21T13:58:29;102980.78;;;-6.32;100.00
75998;BME280;64685;48.762;44.822;2024-02-21T14:03:32;102994.38;;;-6.32;100.00
75998;BME280;64685;48.762;44.822;2024-02-21T14:08:36;102972.25;;;-6.55;100.00
75998;BME280;64685;48.762;44.822;2024-02-21T14:13:42;102978.16;;;-6.77;100.00
75998;BME280;64685;48.762;44.822;2024-02-21T14:18:46;102985.22;;;-6.84;100.00
75998;BME280;64685;48.762;44.822;2024-02-21T14:23:49;102989.81;;;-7.02;100.00
75998;BME280;64685;48.762;44.822;2024-02-21T14:28:53;102984.44;;;-7.11;100.00
75998;BME280;64685;48.762;44.822;2024-02-21T14:33:57;102984.47;;;-7.38;100.00
75998;BME280;64685;48.762;44.822;2024-02-21T14:39:01;102982.97;;;-7.50;100.00
75998;BME280;64685;48.762;44.822;2024-02-21T14:44:06;102995.19;;;-7.46;100.00
75998;BME280;64685;48.762;44.822;2024-02-21T14:49:12;102977.63;;;-7.42;100.00
75998;BME280;64685;48.762;44.822;2024-02-21T14:54:20;102978.97;;;-7.56;100.00
75998;BME280;64685;48.762;44.822;2024-02-21T14:59:23;102990.97;;;-7.58;100.00
75998;BME280;64685;48.762;44.822;2024-02-21T15:04:36;102992.03;;;-7.69;100.00
75998;BME280;64685;48.762;44.822;2024-02-21T15:09:39;102993.13;;;-7.62;100.00
75998;BME280;64685;48.762;44.822;2024-02-21T15:14:43;102992.69;;;-7.57;100.00
75998;BME280;64685;48.762;44.822;2024-02-21T15:19:46;102984.13;;;-7.62;100.00
75998;BME280;64685;48.762;44.822;2024-02-21T15:24:53;103005.97;;;-7.54;100.00
75998;BME280;64685;48.762;44.822;2024-02-21T15:29:56;103005.84;;;-7.62;100.00
75998;BME280;64685;48.762;44.822;2024-02-21T15:35:00;103013.59;;;-7.67;100.00
75998;BME280;64685;48.762;44.822;2024-02-21T15:40:06;102999.84;;;-7.56;100.00
75998;BME280;64685;48.762;44.822;2024-02-21T15:45:11;103018.91;;;-6.94;100.00
75998;BME280;64685;48.762;44.822;2024-02-21T15:50:17;103004.56;;;-6.52;100.00
75998;BME280;64685;48.762;44.822;2024-02-21T15:55:21;103020.56;;;-6.06;100.00
75998;BME280;64685;48.762;44.822;2024-02-21T16:00:25;103010.38;;;-6.04;100.00
75998;BME280;64685;48.762;44.822;2024-02-21T16:05:28;103010.66;;;-6.32;100.00
75998;BME280;64685;48.762;44.822;2024-02-21T16:10:32;103008.59;;;-6.56;100.00
75998;BME280;64685;48.762;44.822;2024-02-21T16:15:36;103013.63;;;-6.78;100.00
75998;BME280;64685;48.762;44.822;2024-02-21T16:20:40;103015.88;;;-6.91;100.00
75998;BME280;64685;48.762;44.822;2024-02-21T16:25:43;103021.63;;;-6.94;100.00
75998;BME280;64685;48.762;44.822;2024-02-21T16:30:47;103008.13;;;-6.86;100.00
75998;BME280;64685;48.762;44.822;2024-02-21T16:35:51;103012.78;;;-6.79;100.00
75998;BME280;64685;48.762;44.822;2024-02-21T16:40:55;103015.88;;;-6.74;100.00
75998;BME280;64685;48.762;44.822;2024-02-21T16:45:59;102987.06;;;-6.84;100.00
75998;BME280;64685;48.762;44.822;2024-02-21T16:51:03;103007.75;;;-6.74;100.00
75998;BME280;64685;48.762;44.822;2024-02-21T16:56:09;103013.38;;;-6.67;100.00
75998;BME280;64685;48.762;44.822;2024-02-21T17:01:13;103012.94;;;-6.80;100.00
75998;BME280;64685;48.762;44.822;2024-02-21T17:06:17;102998.66;;;-6.65;100.00
75998;BME280;64685;48.762;44.822;2024-02-21T17:11:23;103007.06;;;-6.15;100.00
75998;BME280;64685;48.762;44.822;2024-02-21T17:16:27;102997.81;;;-6.22;100.00
75998;BME280;64685;48.762;44.822;2024-02-21T17:21:31;102998.00;;;-5.65;100.00
75998;BME280;64685;48.762;44.822;2024-02-21T17:26:34;102987.53;;;-5.85;100.00
75998;BME280;64685;48.762;44.822;2024-02-21T17:31:38;102991.44;;;-6.13;100.00
75998;BME280;64685;48.762;44.822;2024-02-21T17:36:41;102973.31;;;-6.48;100.00
75998;BME280;64685;48.762;44.822;2024-02-21T17:41:45;102982.25;;;-6.55;100.00
75998;BME280;64685;48.762;44.822;2024-02-21T17:46:50;102975.22;;;-6.48;100.00
75998;BME280;64685;48.762;44.822;2024-02-21T17:51:55;102991.75;;;-6.16;100.00
75998;BME280;64685;48.762;44.822;2024-02-21T17:57:00;102986.41;;;-6.00;100.00
75998;BME280;64685;48.762;44.822;2024-02-21T18:02:05;103000.50;;;-5.71;100.00
75998;BME280;64685;48.762;44.822;2024-02-21T18:07:10;103000.13;;;-5.84;100.00
75998;BME280;64685;48.762;44.822;2024-02-21T18:12:13;102991.69;;;-5.65;100.00
75998;BME280;64685;48.762;44.822;2024-02-21T18:17:17;102984.75;;;-5.60;100.00
75998;BME280;64685;48.762;44.822;2024-02-21T18:22:20;102974.47;;;-5.74;100.00
75998;BME280;64685;48.762;44.822;2024-02-21T18:27:24;102988.50;;;-5.94;100.00
75998;BME280;64685;48.762;44.822;2024-02-21T18:32:27;102989.47;;;-6.03;100.00
75998;BME280;64685;48.762;44.822;2024-02-21T18:37:31;102970.59;;;-6.30;100.00
75998;BME280;64685;48.762;44.822;2024-02-21T18:42:35;102999.75;;;-5.89;100.00
75998;BME280;64685;48.762;44.822;2024-02-21T18:47:39;102978.34;;;-5.92;100.00
75998;BME280;64685;48.762;44.822;2024-02-21T18:52:42;102980.28;;;-5.69;100.00
75998;BME280;64685;48.762;44.822;2024-02-21T18:57:47;103007.81;;;-5.72;100.00
75998;BME280;64685;48.762;44.822;2024-02-21T19:02:51;102983.72;;;-5.67;100.00
75998;BME280;64685;48.762;44.822;2024-02-21T19:07:54;102986.03;;;-5.80;100.00
75998;BME280;64685;48.762;44.822;2024-02-21T19:12:58;102978.34;;;-5.51;100.00
75998;BME280;64685;48.762;44.822;2024-02-21T19:18:01;102992.19;;;-5.36;100.00
75998;BME280;64685;48.762;44.822;2024-02-21T19:23:05;102997.28;;;-5.33;100.00
75998;BME280;64685;48.762;44.822;2024-02-21T19:28:12;102990.66;;;-5.31;100.00
75998;BME280;64685;48.762;44.822;2024-02-21T19:33:16;102968.88;;;-5.39;100.00
75998;BME280;64685;48.762;44.822;2024-02-21T19:38:21;102979.94;;;-5.32;100.00
75998;BME280;64685;48.762;44.822;2024-02-21T19:43:28;102977.84;;;-5.46;100.00
75998;BME280;64685;48.762;44.822;2024-02-21T19:48:32;102985.28;;;-5.23;100.00
75998;BME280;64685;48.762;44.822;2024-02-21T19:53:36;102983.88;;;-5.27;100.00
75998;BME280;64685;48.762;44.822;2024-02-21T19:58:40;102987.59;;;-5.36;100.00
75998;BME280;64685;48.762;44.822;2024-02-21T20:03:44;102980.34;;;-5.19;100.00
75998;BME280;64685;48.762;44.822;2024-02-21T20:08:47;102958.88;;;-5.22;100.00
75998;BME280;64685;48.762;44.822;2024-02-21T20:13:51;102975.16;;;-4.89;100.00
75998;BME280;64685;48.762;44.822;2024-02-21T20:18:54;102971.25;;;-4.78;100.00
75998;BME280;64685;48.762;44.822;2024-02-21T20:23:58;102955.03;;;-5.04;100.00
75998;BME280;64685;48.762;44.822;2024-02-21T20:29:01;102962.97;;;-5.18;100.00
75998;BME280;64685;48.762;44.822;2024-02-21T20:34:05;102960.13;;;-5.58;100.00
75998;BME280;64685;48.762;44.822;2024-02-21T20:39:10;102958.38;;;-5.67;100.00
75998;BME280;64685;48.762;44.822;2024-02-21T20:44:13;102973.25;;;-5.79;100.00
75998;BME280;64685;48.762;44.822;2024-02-21T20:49:17;102977.31;;;-5.91;100.00
75998;BME280;64685;48.762;44.822;2024-02-21T20:54:21;102952.88;;;-6.09;100.00
75998;BME280;64685;48.762;44.822;2024-02-21T20:59:24;102948.44;;;-6.18;100.00
75998;BME280;64685;48.762;44.822;2024-02-21T21:04:27;102956.47;;;-6.34;100.00
75998;BME280;64685;48.762;44.822;2024-02-21T21:09:31;102956.56;;;-6.43;100.00
75998;BME280;64685;48.762;44.822;2024-02-21T21:14:37;102961.25;;;-6.53;100.00
75998;BME280;64685;48.762;44.822;2024-02-21T21:19:40;102960.31;;;-6.62;100.00
75998;BME280;64685;48.762;44.822;2024-02-21T21:24:44;102945.91;;;-6.80;100.00
75998;BME280;64685;48.762;44.822;2024-02-21T21:29:48;102964.28;;;-6.31;100.00
75998;BME280;64685;48.762;44.822;2024-02-21T21:34:55;102965.78;;;-5.85;100.00
75998;BME280;64685;48.762;44.822;2024-02-21T21:39:59;102967.94;;;-5.55;100.00
75998;BME280;64685;48.762;44.822;2024-02-21T21:45:05;102964.53;;;-5.57;100.00
75998;BME280;64685;48.762;44.822;2024-02-21T21:50:09;102961.13;;;-5.59;100.00
75998;BME280;64685;48.762;44.822;2024-02-21T21:55:12;102955.44;;;-5.82;100.00
75998;BME280;64685;48.762;44.822;2024-02-21T22:00:16;102964.75;;;-5.92;100.00
75998;BME280;64685;48.762;44.822;2024-02-21T22:05:20;102959.66;;;-5.87;100.00
75998;BME280;64685;48.762;44.822;2024-02-21T22:10:23;102932.81;;;-6.16;100.00
75998;BME280;64685;48.762;44.822;2024-02-21T22:15:27;102950.03;;;-6.07;100.00
75998;BME280;64685;48.762;44.822;2024-02-21T22:20:30;102954.31;;;-6.22;100.00
75998;BME280;64685;48.762;44.822;2024-02-21T22:25:36;102956.06;;;-6.21;100.00
75998;BME280;64685;48.762;44.822;2024-02-21T22:30:43;102952.72;;;-6.33;100.00
75998;BME280;64685;48.762;44.822;2024-02-21T22:35:47;102930.88;;;-6.49;100.00
75998;BME280;64685;48.762;44.822;2024-02-21T22:40:50;102953.34;;;-6.21;100.00
75998;BME280;64685;48.762;44.822;2024-02-21T22:45:55;102952.63;;;-5.98;100.00
75998;BME280;64685;48.762;44.822;2024-02-21T22:50:59;102966.06;;;-5.96;100.00
75998;BME280;64685;48.762;44.822;2024-02-21T22:56:02;102962.81;;;-6.00;100.00
75998;BME280;64685;48.762;44.822;2024-02-21T23:01:10;102959.59;;;-5.95;100.00
75998;BME280;64685;48.762;44.822;2024-02-21T23:06:14;102949.75;;;-5.96;100.00
75998;BME280;64685;48.762;44.822;2024-02-21T23:11:18;102963.19;;;-6.20;100.00
75998;BME280;64685;48.762;44.822;2024-02-21T23:16:21;102961.41;;;-6.29;100.00
75998;BME280;64685;48.762;44.822;2024-02-21T23:21:25;102943.25;;;-6.54;100.00
75998;BME280;64685;48.762;44.822;2024-02-21T23:26:29;102933.97;;;-6.61;100.00
75998;BME280;64685;48.762;44.822;2024-02-21T23:31:40;102943.91;;;-6.35;100.00
75998;BME280;64685;48.762;44.822;2024-02-21T23:36:44;102937.94;;;-6.56;100.00
75998;BME280;64685;48.762;44.822;2024-02-21T23:41:48;102937.66;;;-6.70;100.00
75998;BME280;64685;48.762;44.822;2024-02-21T23:46:52;102944.25;;;-6.73;100.00
75998;BME280;64685;48.762;44.822;2024-02-21T23:51:56;102938.75;;;-6.98;100.00
75998;BME280;64685;48.762;44.822;2024-02-21T23:57:01;102920.28;;;-7.12;100.00
